Time;durP1;ratioP1;P1;durP2;ratioP2;P2;SDS_P1;SDS_P2;PMS_P1;PMS_P2;Temp;Humidity;BMP_temperature;BMP_pressure;BME280_temperature;BME280_humidity;BME280_pressure;Samples;Min_cycle;Max_cycle;Signal;HPM_P1;HPM_P2
2022/08/30 00:01:13;;;;;;;9.30;2.70;;;;;;;17.73;97.85;96877.69;4974860;28;20042;-75
2022/08/30 00:03:45;;;;;;;7.00;2.67;;;;;;;17.68;98.86;96888.56;4990831;28;20039;-74
2022/08/30 00:06:13;;;;;;;7.28;2.42;;;;;;;17.53;99.94;96888.69;4975090;28;20523;-75
2022/08/30 00:08:39;;;;;;;11.48;2.70;;;;;;;17.48;99.79;96891.41;4976317;28;20042;-75
2022/08/30 00:11:08;;;;;;;7.68;2.65;;;;;;;17.40;99.86;96883.91;4975488;28;20065;-75
2022/08/30 00:13:36;;;;;;;9.05;2.55;;;;;;;17.32;100.00;96882.59;4974740;28;20366;-75
2022/08/30 00:16:02;;;;;;;7.20;2.80;;;;;;;17.25;100.00;96876.69;4976161;28;20042;-75
2022/08/30 00:18:27;;;;;;;8.05;2.70;;;;;;;17.19;100.00;96885.91;4973760;28;20166;-75
2022/08/30 00:20:54;;;;;;;11.88;3.25;;;;;;;17.07;100.00;96880.06;4975701;28;20268;-73
2022/08/30 00:23:20;;;;;;;6.57;2.80;;;;;;;17.05;100.00;96887.66;4974391;28;20685;-75
2022/08/30 00:25:46;;;;;;;12.32;2.67;;;;;;;17.15;100.00;96887.56;4975105;28;20276;-75
2022/08/30 00:28:13;;;;;;;10.70;2.45;;;;;;;17.23;100.00;96878.88;4973686;28;20030;-75
2022/08/30 00:30:39;;;;;;;6.00;2.53;;;;;;;17.25;100.00;96885.59;4956881;28;20047;-74
2022/08/30 00:33:05;;;;;;;5.30;2.33;;;;;;;17.16;100.00;96884.59;4974926;28;20037;-74
2022/08/30 00:35:30;;;;;;;10.75;2.88;;;;;;;17.14;100.00;96880.56;4975110;28;20310;-73
2022/08/30 00:37:56;;;;;;;10.30;2.45;;;;;;;16.98;100.00;96883.34;4975088;28;20061;-75
2022/08/30 00:40:27;;;;;;;8.90;2.50;;;;;;;16.88;100.00;96891.50;4974309;28;20134;-75
2022/08/30 00:42:54;;;;;;;12.40;3.15;;;;;;;16.81;100.00;96892.88;4974145;28;20348;-74
2022/08/30 00:45:23;;;;;;;10.13;2.53;;;;;;;16.75;100.00;96892.13;4972868;28;20026;-75
2022/08/30 00:47:50;;;;;;;9.10;3.00;;;;;;;16.67;100.00;96888.06;4990528;28;20154;-74
2022/08/30 00:50:18;;;;;;;9.38;2.95;;;;;;;16.61;100.00;96899.16;4989629;28;20042;-75
2022/08/30 00:52:47;;;;;;;8.07;2.50;;;;;;;16.66;100.00;96901.84;4974621;28;20038;-73
2022/08/30 00:55:15;;;;;;;7.55;2.47;;;;;;;16.75;100.00;96904.81;4973696;28;20042;-76
2022/08/30 00:57:44;;;;;;;7.43;2.90;;;;;;;16.78;100.00;96905.06;4974406;28;20038;-74
2022/08/30 01:00:12;;;;;;;;;;;;;;;16.76;100.00;96901.03;4972874;28;20042;-75
2022/08/30 01:02:37;;;;;;;9.02;2.70;;;;;;;16.88;100.00;96905.00;4973953;28;19922;-76
2022/08/30 01:05:05;;;;;;;8.30;2.60;;;;;;;16.85;100.00;96910.97;4975497;28;20030;-75
2022/08/30 01:07:33;;;;;;;9.65;2.67;;;;;;;16.88;100.00;96918.53;4974981;28;20231;-74
2022/08/30 01:10:00;;;;;;;9.88;2.50;;;;;;;16.83;100.00;96913.16;4972903;28;20057;-76
2022/08/30 01:12:26;;;;;;;11.65;2.78;;;;;;;16.86;100.00;96907.19;4974349;28;20093;-74
2022/08/30 01:14:52;;;;;;;8.82;2.47;;;;;;;16.92;100.00;96914.19;4975000;28;20038;-75
2022/08/30 01:17:19;;;;;;;6.88;2.38;;;;;;;16.82;100.00;96910.75;4987659;28;20466;-74
2022/08/30 01:19:56;;;;;;;7.15;2.30;;;;;;;16.80;100.00;96902.06;4974473;28;20248;-74
2022/08/30 01:22:33;;;;;;;10.57;2.58;;;;;;;16.63;100.00;96895.09;4971996;28;20652;-74
2022/08/30 01:25:01;;;;;;;9.10;2.60;;;;;;;16.49;100.00;96893.25;4973583;28;20133;-75
2022/08/30 01:27:29;;;;;;;5.57;2.55;;;;;;;16.47;100.00;96900.81;4973958;28;20039;-75
2022/08/30 01:29:56;;;;;;;8.25;2.28;;;;;;;16.36;100.00;96903.56;4989219;28;20045;-74
2022/08/30 01:32:27;;;;;;;10.65;2.88;;;;;;;16.33;100.00;96906.00;4989218;28;20050;-74
2022/08/30 01:34:55;;;;;;;6.97;2.33;;;;;;;16.27;100.00;96907.91;4973157;28;20477;-74
2022/08/30 01:37:26;;;;;;;9.43;2.80;;;;;;;16.28;100.00;96906.84;4971069;28;20045;-74
2022/08/30 01:39:52;;;;;;;6.72;2.65;;;;;;;16.27;100.00;96899.00;4971669;28;20165;-74
2022/08/30 01:42:18;;;;;;;8.68;3.00;;;;;;;16.26;100.00;96906.28;4971119;28;20038;-74
2022/08/30 01:44:44;;;;;;;5.80;2.60;;;;;;;16.28;100.00;96908.72;4975376;28;20089;-74
2022/08/30 01:47:10;;;;;;;7.93;2.55;;;;;;;16.29;100.00;96913.84;4973562;28;20030;-75
2022/08/30 01:49:36;;;;;;;12.45;2.80;;;;;;;16.33;100.00;96914.09;4973077;28;20046;-74
2022/08/30 01:52:03;;;;;;;5.65;2.30;;;;;;;16.29;100.00;96908.44;4973995;28;20045;-74
2022/08/30 01:54:30;;;;;;;7.20;2.50;;;;;;;16.29;100.00;96907.63;4989177;28;20129;-74
2022/08/30 01:56:56;;;;;;;8.68;3.03;;;;;;;16.36;100.00;96898.16;4974198;28;20310;-73
2022/08/30 01:59:21;;;;;;;10.20;2.72;;;;;;;16.44;100.00;96902.19;4987748;28;20060;-75
2022/08/30 02:01:49;;;;;;;8.70;2.90;;;;;;;16.40;100.00;96899.22;4971286;28;20130;-74
2022/08/30 02:04:15;;;;;;;9.07;2.83;;;;;;;16.47;100.00;96898.13;4973631;28;20203;-74
2022/08/30 02:06:41;;;;;;;8.15;2.45;;;;;;;16.50;100.00;96905.66;4970982;28;20461;-74
2022/08/30 02:09:06;;;;;;;8.85;2.90;;;;;;;16.53;100.00;96913.25;4973154;28;20232;-73
2022/08/30 02:11:32;;;;;;;9.57;2.55;;;;;;;16.52;100.00;96907.03;4974180;28;20133;-75
2022/08/30 02:13:58;;;;;;;9.63;3.15;;;;;;;16.54;100.00;96909.44;4974284;28;20203;-75
2022/08/30 02:16:27;;;;;;;9.63;2.97;;;;;;;16.52;100.00;96907.03;4971606;28;20046;-75
2022/08/30 02:18:54;;;;;;;6.47;2.70;;;;;;;16.48;100.00;96907.84;4973772;28;20070;-74
2022/08/30 02:21:20;;;;;;;8.30;2.90;;;;;;;16.41;100.00;96900.84;4970865;28;20070;-74
2022/08/30 02:23:46;;;;;;;5.68;2.42;;;;;;;16.28;100.00;96895.22;4974721;28;20424;-75
2022/08/30 02:26:12;;;;;;;9.05;3.28;;;;;;;16.24;100.00;96897.66;4987541;28;20045;-75
2022/08/30 02:28:38;;;;;;;11.15;2.75;;;;;;;16.20;100.00;96904.69;4973803;28;20073;-75
2022/08/30 02:31:03;;;;;;;9.95;3.22;;;;;;;16.10;100.00;96894.69;4971148;28;20053;-75
2022/08/30 02:33:31;;;;;;;12.50;2.50;;;;;;;16.09;100.00;96903.06;4973448;28;20046;-73
2022/08/30 02:35:57;;;;;;;9.27;3.05;;;;;;;16.11;100.00;96906.34;4972997;28;20538;-73
2022/08/30 02:38:23;;;;;;;9.98;2.85;;;;;;;16.04;100.00;96903.91;4972877;28;20488;-75
2022/08/30 02:40:49;;;;;;;7.90;2.75;;;;;;;16.05;100.00;96900.13;4973076;28;20044;-74
2022/08/30 02:43:15;;;;;;;11.57;2.63;;;;;;;16.01;100.00;96896.34;4971642;28;20050;-73
2022/08/30 02:45:41;;;;;;;7.50;2.90;;;;;;;16.09;100.00;96900.38;4972981;28;20035;-73
2022/08/30 02:48:07;;;;;;;12.82;3.50;;;;;;;16.14;100.00;96887.69;4972484;28;20416;-75
2022/08/30 02:50:32;;;;;;;11.13;3.20;;;;;;;16.17;100.00;96883.63;4973466;28;20054;-74
2022/08/30 02:52:58;;;;;;;9.48;2.70;;;;;;;16.21;100.00;96889.31;4977412;28;20505;-74
2022/08/30 02:55:23;;;;;;;9.68;3.47;;;;;;;16.20;100.00;96888.50;4975335;28;20049;-75
2022/08/30 02:57:49;;;;;;;12.48;3.60;;;;;;;16.24;100.00;96892.25;4991847;28;20065;-73
2022/08/30 03:00:18;;;;;;;8.43;3.20;;;;;;;16.25;100.00;96880.34;4990350;28;20045;-74
2022/08/30 03:02:44;;;;;;;10.15;3.33;;;;;;;16.28;100.00;96884.44;4976380;28;20382;-74
2022/08/30 03:05:12;;;;;;;7.90;3.13;;;;;;;16.32;100.00;96882.78;4991223;28;20034;-74
2022/08/30 03:07:39;;;;;;;10.50;3.42;;;;;;;16.28;100.00;96885.22;4976143;28;20062;-75
2022/08/30 03:10:05;;;;;;;9.27;2.95;;;;;;;16.04;100.00;96889.59;4976878;28;20034;-74
2022/08/30 03:12:32;;;;;;;12.55;3.13;;;;;;;15.91;100.00;96882.06;4977040;28;20045;-74
2022/08/30 03:14:58;;;;;;;9.75;3.10;;;;;;;15.86;100.00;96882.88;4977138;28;20386;-75
2022/08/30 03:17:23;;;;;;;14.77;3.63;;;;;;;15.89;100.00;96882.34;4975118;28;20038;-74
2022/08/30 03:19:49;;;;;;;13.07;3.45;;;;;;;15.89;100.00;96882.34;4975980;28;20488;-75
2022/08/30 03:22:15;;;;;;;11.15;3.20;;;;;;;15.92;100.00;96880.97;4975609;28;20132;-74
2022/08/30 03:24:40;;;;;;;9.50;3.17;;;;;;;15.93;100.00;96883.41;4976456;28;20074;-74
2022/08/30 03:27:06;;;;;;;8.68;2.95;;;;;;;15.86;100.00;96882.88;4976013;28;20266;-75
2022/08/30 03:29:35;;;;;;;8.90;3.60;;;;;;;15.77;100.00;96884.50;4976471;28;20073;-74
2022/08/30 03:32:01;;;;;;;10.57;3.40;;;;;;;15.72;100.00;96871.84;4975094;28;20050;-74
2022/08/30 03:34:26;;;;;;;12.70;3.53;;;;;;;15.76;100.00;96881.00;4977159;28;20587;-75
2022/08/30 03:36:54;;;;;;;10.95;3.40;;;;;;;15.86;100.00;96880.97;4976708;28;20161;-75
2022/08/30 03:39:21;;;;;;;8.88;2.95;;;;;;;15.93;100.00;96888.00;4977305;28;20231;-75
2022/08/30 03:41:49;;;;;;;16.02;3.40;;;;;;;15.93;100.00;96888.00;4976934;28;20505;-75
2022/08/30 03:44:15;;;;;;;9.82;3.95;;;;;;;15.91;100.00;96885.56;4992140;28;20130;-74
2022/08/30 03:46:41;;;;;;;15.02;3.83;;;;;;;15.82;100.00;96879.91;4976578;28;20509;-75
2022/08/30 03:49:07;;;;;;;10.98;3.22;;;;;;;15.78;100.00;96878.81;4977462;28;20500;-74
2022/08/30 03:51:32;;;;;;;16.65;4.25;;;;;;;15.74;100.00;96875.06;4975157;28;20134;-73
2022/08/30 03:53:59;;;;;;;11.57;3.28;;;;;;;15.81;100.00;96888.28;4977541;28;20057;-74
2022/08/30 03:56:24;;;;;;;14.88;3.95;;;;;;;15.78;100.00;96886.91;4975924;28;20443;-75
2022/08/30 03:58:50;;;;;;;10.60;3.40;;;;;;;15.75;100.00;96882.06;4976139;28;20042;-75
2022/08/30 04:01:16;;;;;;;10.48;3.45;;;;;;;15.75;100.00;96892.88;4974614;28;20061;-75
2022/08/30 04:03:42;;;;;;;8.77;3.20;;;;;;;15.74;100.00;96890.44;4974984;28;20506;-75
2022/08/30 04:06:07;;;;;;;10.32;3.72;;;;;;;15.72;100.00;96877.22;4974195;28;20042;-74
2022/08/30 04:08:33;;;;;;;9.10;3.45;;;;;;;15.68;100.00;96878.03;4975919;28;20054;-74
2022/08/30 04:10:59;;;;;;;9.68;3.47;;;;;;;15.72;100.00;96887.19;4977044;28;20462;-75
2022/08/30 04:13:25;;;;;;;9.00;3.53;;;;;;;15.76;100.00;96881.00;4988048;28;20852;-73
2022/08/30 04:15:50;;;;;;;10.85;3.13;;;;;;;15.80;100.00;96881.28;4977117;28;20118;-75
2022/08/30 04:18:16;;;;;;;11.25;3.30;;;;;;;15.69;100.00;96876.94;4990284;28;20144;-75
2022/08/30 04:20:42;;;;;;;12.73;4.20;;;;;;;15.68;100.00;96884.22;4974927;28;20050;-75
2022/08/30 04:23:08;;;;;;;13.57;4.30;;;;;;;15.67;100.00;96882.63;4972032;28;20487;-75
2022/08/30 04:25:38;;;;;;;8.43;3.75;;;;;;;15.55;100.00;96879.34;4975373;28;20080;-75
2022/08/30 04:28:04;;;;;;;11.90;3.80;;;;;;;15.48;100.00;96876.09;4989227;28;20352;-76
2022/08/30 04:30:30;;;;;;;14.20;4.30;;;;;;;15.40;100.00;96882.03;4973707;28;20229;-75
2022/08/30 04:32:56;;;;;;;14.52;4.28;;;;;;;15.32;100.00;96875.28;4990443;28;20437;-74
2022/08/30 04:35:23;;;;;;;10.88;3.50;;;;;;;15.29;100.00;96882.03;4974247;28;20513;-74
2022/08/30 04:37:48;;;;;;;10.73;3.80;;;;;;;15.30;100.00;96885.53;4974386;28;20038;-75
2022/08/30 04:40:14;;;;;;;18.50;4.60;;;;;;;15.22;100.00;96886.06;4975601;28;20118;-74
2022/08/30 04:42:42;;;;;;;15.35;3.90;;;;;;;15.24;100.00;96887.41;4974784;28;20128;-75
2022/08/30 04:45:13;;;;;;;17.63;4.10;;;;;;;15.23;100.00;96879.59;4988568;28;20359;-74
2022/08/30 04:47:40;;;;;;;;;;;;;;;15.22;100.00;96875.28;4973981;28;20445;-75
2022/08/30 04:50:07;;;;;;;10.10;3.58;;;;;;;15.24;100.00;96887.41;4974460;28;19924;-74
2022/08/30 04:52:32;;;;;;;14.18;5.03;;;;;;;15.23;100.00;96893.88;4989567;28;20129;-74
2022/08/30 04:54:58;;;;;;;16.45;4.50;;;;;;;15.26;100.00;96898.75;4974347;28;20255;-74
2022/08/30 04:57:25;;;;;;;10.57;4.30;;;;;;;15.35;100.00;96896.34;4972977;28;20049;-75
2022/08/30 04:59:51;;;;;;;12.93;4.20;;;;;;;15.43;100.00;96895.00;4958074;28;20041;-75
2022/08/30 05:02:17;;;;;;;16.23;4.43;;;;;;;15.39;100.00;96902.00;4987367;28;20516;-74
2022/08/30 05:05:38;;;;;;;13.63;4.35;;;;;;;15.39;100.00;96899.28;4974040;28;20124;-75
2022/08/30 05:07:28;;;;;;;19.90;5.32;;;;;;;15.31;100.00;96906.03;4973503;28;20054;-75
2022/08/30 05:09:54;;;;;;;23.23;5.20;;;;;;;15.29;100.00;96900.09;4975019;28;20034;-74
2022/08/30 05:12:20;;;;;;;20.15;4.50;;;;;;;15.22;100.00;96905.75;4972982;28;20037;-74
2022/08/30 05:14:45;;;;;;;11.20;3.97;;;;;;;15.26;100.00;96916.81;4974914;28;20035;-74
2022/08/30 05:17:11;;;;;;;10.07;4.55;;;;;;;15.37;100.00;96912.25;4974673;28;20088;-75
2022/08/30 05:19:36;;;;;;;11.63;3.90;;;;;;;15.47;100.00;96918.44;4975940;28;20038;-75
2022/08/30 05:22:02;;;;;;;21.10;5.25;;;;;;;15.55;100.00;96915.22;4974152;28;20049;-75
2022/08/30 05:24:28;;;;;;;15.90;4.25;;;;;;;15.61;100.00;96910.66;4973311;28;20043;-74
2022/08/30 05:26:53;;;;;;;14.80;3.97;;;;;;;15.76;100.00;96918.75;4973810;28;20388;-75
2022/08/30 05:29:19;;;;;;;21.55;4.47;;;;;;;15.92;100.00;96927.66;4975092;28;20045;-74
2022/08/30 05:31:44;;;;;;;16.88;4.10;;;;;;;15.97;100.00;96924.16;4972241;28;20046;-74
2022/08/30 05:34:10;;;;;;;17.25;4.65;;;;;;;16.06;100.00;96917.94;4974064;28;20034;-75
2022/08/30 05:36:37;;;;;;;17.13;4.20;;;;;;;16.09;100.00;96914.69;4987478;28;20042;-75
2022/08/30 05:39:04;;;;;;;13.48;4.38;;;;;;;16.03;100.00;96912.25;4973582;28;20052;-74
2022/08/30 05:41:29;;;;;;;14.88;4.05;;;;;;;16.05;100.00;96919.03;4988712;28;20837;-74
2022/08/30 05:43:59;;;;;;;16.52;4.13;;;;;;;16.01;100.00;96909.84;4972045;28;20420;-74
2022/08/30 05:46:28;;;;;;;10.20;4.30;;;;;;;16.13;100.00;96913.06;4970777;28;20165;-74
2022/08/30 05:48:54;;;;;;;9.98;4.03;;;;;;;16.19;100.00;96919.28;4972986;28;20038;-73
2022/08/30 05:51:23;;;;;;;15.02;4.40;;;;;;;16.14;100.00;96920.09;4968248;28;20050;-75
2022/08/30 05:53:51;;;;;;;27.95;4.60;;;;;;;16.15;100.00;96920.88;4971742;28;20038;-74
2022/08/30 05:56:20;;;;;;;12.27;4.45;;;;;;;16.13;100.00;96926.56;4972057;28;20563;-75
2022/08/30 05:58:46;;;;;;;22.10;5.03;;;;;;;16.09;100.00;96921.97;4973916;28;20045;-74
2022/08/30 06:01:36;;;;;;;11.20;4.60;;;;;;;16.14;100.00;96919.28;4971985;28;20049;-75
2022/08/30 06:04:04;;;;;;;14.38;4.32;;;;;;;16.10;100.00;96921.69;4974137;28;20092;-75
2022/08/30 06:06:32;;;;;;;16.15;4.60;;;;;;;16.18;100.00;96931.13;4988046;28;20310;-74
2022/08/30 06:08:57;;;;;;;16.23;4.65;;;;;;;16.34;100.00;96919.25;4974726;28;20490;-75
2022/08/30 06:11:25;;;;;;;14.65;4.78;;;;;;;16.47;100.00;96915.13;4973573;28;20126;-74
2022/08/30 06:13:52;;;;;;;24.45;4.88;;;;;;;16.55;100.00;96919.16;4989752;28;20038;-74
2022/08/30 06:16:19;;;;;;;17.65;4.93;;;;;;;16.65;100.00;96922.66;4970840;28;20050;-74
2022/08/30 06:18:46;;;;;;;15.40;4.68;;;;;;;16.71;100.00;96910.75;4989193;28;20510;-74
2022/08/30 06:21:20;;;;;;;15.70;5.10;;;;;;;16.77;100.00;96916.97;4974983;28;20038;-75
2022/08/30 06:23:45;;;;;;;14.48;4.75;;;;;;;16.91;100.00;96915.28;4989500;28;20319;-74
2022/08/30 06:26:11;;;;;;;17.83;4.78;;;;;;;17.05;100.00;96926.31;4973522;28;20438;-75
2022/08/30 06:28:37;;;;;;;14.75;5.13;;;;;;;17.08;100.00;96925.72;4971805;28;20129;-75
2022/08/30 06:31:10;;;;;;;11.02;4.65;;;;;;;17.22;100.00;96920.53;4972585;28;20114;-74
2022/08/30 06:33:36;;;;;;;11.90;4.00;;;;;;;17.31;100.00;96918.84;4973426;28;20038;-74
2022/08/30 06:36:07;;;;;;;12.57;4.50;;;;;;;17.34;100.00;96929.09;4989073;28;20045;-75
2022/08/30 06:38:33;;;;;;;13.63;4.43;;;;;;;17.47;100.00;96928.47;4973848;28;20125;-75
2022/08/30 06:40:58;;;;;;;13.25;4.32;;;;;;;17.64;100.00;96925.38;4989945;28;20416;-73
2022/08/30 06:43:24;;;;;;;14.32;4.70;;;;;;;17.82;100.00;96923.94;4972889;28;20047;-74
2022/08/30 06:45:50;;;;;;;10.35;3.90;;;;;;;17.93;100.00;96911.91;4974467;28;20041;-74
2022/08/30 06:48:15;;;;;;;11.82;4.60;;;;;;;18.02;100.00;96923.75;4972342;28;20058;-74
2022/08/30 06:50:41;;;;;;;14.35;3.88;;;;;;;17.99;100.00;96921.63;4974589;28;20462;-74
2022/08/30 06:53:07;;;;;;;25.67;4.57;;;;;;;18.02;100.00;96921.03;4974364;28;20146;-75
2022/08/30 06:55:33;;;;;;;12.95;4.30;;;;;;;18.02;100.00;96918.31;4971009;28;20509;-75
2022/08/30 06:58:00;;;;;;;17.27;4.32;;;;;;;18.04;100.00;96924.25;4971947;28;20423;-73
2022/08/30 07:00:26;;;;;;;19.23;4.70;;;;;;;18.01;100.00;96922.13;4973092;28;20049;-75
2022/08/30 07:02:52;;;;;;;13.48;4.35;;;;;;;18.10;100.00;96919.59;4972208;28;20156;-75
2022/08/30 07:05:20;;;;;;;12.57;4.32;;;;;;;18.16;100.00;96929.31;4973859;28;20080;-75
2022/08/30 07:07:46;;;;;;;20.73;4.57;;;;;;;18.31;100.00;96920.22;4973754;28;20054;-74
2022/08/30 07:10:14;;;;;;;14.15;4.07;;;;;;;18.40;100.00;96920.41;4974123;28;20125;-75
2022/08/30 07:12:39;;;;;;;9.82;4.20;;;;;;;18.48;100.00;96922.47;4974545;28;20357;-75
2022/08/30 07:15:06;;;;;;;14.93;4.22;;;;;;;18.65;100.00;96920.94;4974571;28;20105;-74
2022/08/30 07:20:18;;;;;;;10.98;4.07;;;;;;;18.94;100.00;96922.78;4973982;28;20073;-75
2022/08/30 07:22:45;;;;;;;10.80;4.25;;;;;;;19.07;100.00;96930.22;4973164;28;20343;-74
2022/08/30 07:25:10;;;;;;;14.57;4.10;;;;;;;19.35;100.00;96933.88;4972699;28;20049;-75
2022/08/30 07:27:36;;;;;;;11.45;3.92;;;;;;;19.42;96.54;96928.91;4972680;28;20496;-74
2022/08/30 07:30:03;;;;;;;13.27;4.10;;;;;;;19.47;94.81;96936.97;4972670;28;20034;-76
2022/08/30 07:32:29;;;;;;;12.90;4.57;;;;;;;19.61;95.01;96928.94;4971355;28;20539;-74
2022/08/30 07:34:54;;;;;;;19.63;4.22;;;;;;;19.75;92.74;96931.69;4973976;28;20039;-74
2022/08/30 07:37:20;;;;;;;12.65;3.88;;;;;;;19.78;92.50;96939.25;4989380;28;20251;-75
2022/08/30 07:39:45;;;;;;;15.88;4.32;;;;;;;19.89;94.02;96937.97;4979278;28;20464;-74
2022/08/30 07:42:11;;;;;;;16.88;4.43;;;;;;;19.92;92.46;96940.13;4992402;28;20026;-75
2022/08/30 07:44:36;;;;;;;11.02;4.03;;;;;;;19.83;93.20;96943.78;4976827;28;20049;-74
2022/08/30 07:47:02;;;;;;;14.85;4.13;;;;;;;19.71;94.18;96939.63;4972045;28;20579;-74
2022/08/30 07:49:28;;;;;;;16.02;4.45;;;;;;;19.55;94.64;96938.22;4957893;28;20050;-75
2022/08/30 07:51:55;;;;;;;14.13;4.45;;;;;;;19.58;95.56;96939.56;4976215;28;20072;-74
2022/08/30 07:54:21;;;;;;;18.92;3.90;;;;;;;19.61;93.19;96941.69;4975160;28;20362;-73
2022/08/30 07:56:47;;;;;;;11.85;3.90;;;;;;;19.70;92.41;96950.78;4976293;28;20625;-75
2022/08/30 07:59:13;;;;;;;22.30;3.95;;;;;;;19.92;91.08;96952.88;4976083;28;20048;-74
2022/08/30 08:01:38;;;;;;;24.85;4.53;;;;;;;20.22;90.80;96948.84;4991116;28;20047;-75
2022/08/30 08:04:05;;;;;;;9.77;4.00;;;;;;;20.42;89.02;96944.97;4976997;28;20113;-74
2022/08/30 08:06:31;;;;;;;15.38;4.00;;;;;;;20.54;87.44;96945.31;4991340;28;20057;-75
2022/08/30 08:09:00;;;;;;;17.38;3.85;;;;;;;20.58;84.54;96949.03;4977131;28;20046;-75
2022/08/30 08:11:27;;;;;;;39.95;4.95;;;;;;;20.48;85.29;96960.13;4990833;28;20547;-75
2022/08/30 08:13:52;;;;;;;30.65;5.03;;;;;;;20.41;86.79;96949.59;4976771;28;20140;-75
2022/08/30 08:16:18;;;;;;;24.95;4.30;;;;;;;20.59;87.72;96951.47;4972469;28;20517;-75
2022/08/30 08:18:44;;;;;;;23.73;4.50;;;;;;;20.77;86.63;96952.47;4975961;28;20038;-75
2022/08/30 08:21:10;;;;;;;20.48;4.80;;;;;;;20.80;84.25;96956.53;4976002;28;20405;-76
2022/08/30 08:23:36;;;;;;;11.73;4.65;;;;;;;20.83;83.60;96959.44;4978069;28;20072;-76
2022/08/30 08:26:02;;;;;;;16.42;5.10;;;;;;;20.88;85.21;96957.72;4977775;28;20224;-75
2022/08/30 08:28:28;;;;;;;17.05;3.85;;;;;;;21.10;84.03;96949.66;4974961;28;20049;-76
2022/08/30 08:30:53;;;;;;;11.35;3.88;;;;;;;21.27;83.71;96949.84;4990584;28;20581;-76
2022/08/30 08:33:19;;;;;;;16.67;4.07;;;;;;;21.42;83.37;96948.72;4974680;28;20501;-75
2022/08/30 08:35:45;;;;;;;14.65;3.88;;;;;;;21.54;80.00;96940.00;4974940;28;20045;-76
2022/08/30 08:38:11;;;;;;;17.88;3.97;;;;;;;21.63;80.35;96949.88;4970587;28;20041;-76
2022/08/30 08:41:02;;;;;;;13.90;4.10;;;;;;;21.63;80.27;96957.22;4990914;28;20046;-75
2022/08/30 08:43:32;;;;;;;15.98;3.70;;;;;;;21.67;79.70;96958.22;4974799;28;20346;-76
2022/08/30 08:46:42;;;;;;;15.38;4.22;;;;;;;21.76;76.34;96947.41;4959544;28;20137;-76
2022/08/30 08:49:08;;;;;;;13.88;4.07;;;;;;;21.76;75.88;96956.38;4946672;28;20492;-76
2022/08/30 08:54:29;;;;;;;11.48;4.05;;;;;;;21.89;75.90;96946.56;4975592;28;20038;-75
2022/08/30 08:56:55;;;;;;;13.70;4.20;;;;;;;21.87;74.02;96946.88;4974692;28;20042;-76
2022/08/30 08:59:21;;;;;;;18.88;4.57;;;;;;;22.07;74.90;96945.56;4974285;28;20030;-75
2022/08/30 09:01:47;;;;;;;32.55;4.75;;;;;;;22.28;74.61;96943.16;4975454;28;20477;-76
2022/08/30 09:04:25;;;;;;;9.95;3.50;;;;;;;22.36;68.72;96947.84;4976110;28;20066;-75
2022/08/30 09:06:53;;;;;;;12.10;3.78;;;;;;;22.45;71.26;96950.63;4990542;28;20046;-76
2022/08/30 09:09:34;;;;;;;16.85;4.00;;;;;;;22.52;69.05;96940.06;4974317;28;20128;-75
2022/08/30 09:11:59;;;;;;;14.50;3.53;;;;;;;22.62;70.13;96947.97;4973532;28;20536;-75
2022/08/30 09:14:30;;;;;;;16.30;4.45;;;;;;;22.83;67.57;96939.25;4990673;28;20034;-75
2022/08/30 09:17:05;;;;;;;16.90;4.50;;;;;;;22.86;64.54;96938.63;4972144;28;20287;-75
2022/08/30 09:19:31;;;;;;;17.10;3.97;;;;;;;22.85;57.98;96937.81;4975134;28;20256;-76
2022/08/30 09:21:59;;;;;;;10.35;3.55;;;;;;;22.60;54.86;96942.03;4975985;28;20039;-75
2022/08/30 09:24:25;;;;;;;15.90;3.90;;;;;;;22.63;54.21;96940.59;4976389;28;20165;-76
2022/08/30 09:26:50;;;;;;;12.00;3.20;;;;;;;22.53;55.85;96942.47;4975417;28;20899;-76
2022/08/30 09:29:17;;;;;;;14.82;4.00;;;;;;;22.55;53.89;96938.63;4975719;28;20045;-75
2022/08/30 09:31:53;;;;;;;12.48;3.33;;;;;;;22.70;52.57;96938.22;4974784;28;20042;-76
2022/08/30 09:34:21;;;;;;;10.18;3.65;;;;;;;22.76;50.62;96936.97;4974955;28;20038;-75
2022/08/30 09:36:52;;;;;;;10.13;3.35;;;;;;;23.19;51.48;96930.84;4973150;28;20042;-75
2022/08/30 09:39:40;;;;;;;9.13;3.40;;;;;;;23.59;52.58;96931.56;4988880;28;20267;-76
2022/08/30 09:42:27;;;;;;;9.98;2.95;;;;;;;23.95;48.08;96925.78;4974178;28;20050;-76
2022/08/30 09:45:09;;;;;;;14.65;3.75;;;;;;;24.39;48.75;96929.25;4976934;28;20080;-75
2022/08/30 09:47:40;;;;;;;12.18;3.28;;;;;;;24.66;46.28;96923.38;4978264;28;20285;-76
2022/08/30 09:50:16;;;;;;;15.07;3.60;;;;;;;25.15;43.81;96923.00;4970818;28;20097;-76
2022/08/30 09:53:01;;;;;;;8.00;3.47;;;;;;;25.50;40.69;96913.41;4950407;28;20039;-76
2022/08/30 09:55:59;;;;;;;8.77;3.45;;;;;;;25.49;39.08;96916.50;4950545;28;20042;-75
2022/08/30 09:58:54;;;;;;;14.27;4.25;;;;;;;25.40;37.98;96913.03;4955236;28;20443;-76
2022/08/30 10:01:47;;;;;;;14.45;3.42;;;;;;;25.42;38.96;96908.81;4959934;28;20544;-75
2022/08/30 10:04:26;;;;;;;9.18;3.25;;;;;;;25.53;39.37;96906.47;4969649;28;20093;-77
2022/08/30 10:07:05;;;;;;;7.55;3.40;;;;;;;25.51;36.87;96906.78;4972667;28;20046;-76
2022/08/30 10:09:51;;;;;;;12.30;3.72;;;;;;;25.67;38.03;96907.00;4974572;28;20225;-77
2022/08/30 10:12:33;;;;;;;11.02;3.85;;;;;;;25.75;37.16;96902.59;4974743;28;20042;-76
2022/08/30 10:15:18;;;;;;;11.68;3.70;;;;;;;25.91;39.28;96894.56;4990681;28;20077;-76
2022/08/30 10:18:03;;;;;;;13.50;3.80;;;;;;;25.98;39.17;96900.28;4973977;28;20038;-76
2022/08/30 10:20:49;;;;;;;12.23;3.50;;;;;;;26.03;40.01;96895.41;4973775;28;20034;-76
2022/08/30 10:23:40;;;;;;;12.00;3.63;;;;;;;26.25;40.08;96896.97;4973656;28;20038;-76
2022/08/30 10:26:46;;;;;;;9.85;3.55;;;;;;;26.37;40.67;96894.22;4285059;28;9999842;-77
2022/08/30 10:29:18;;;;;;;12.48;3.72;;;;;;;26.70;39.66;96892.63;4970650;28;20214;-77
2022/08/30 10:31:55;;;;;;;12.52;4.00;;;;;;;26.94;38.88;96890.66;4969081;28;20057;-76
2022/08/30 10:35:05;;;;;;;15.60;3.67;;;;;;;27.14;38.60;96888.16;4972291;28;20130;-76
2022/08/30 10:37:37;;;;;;;9.85;4.45;;;;;;;27.51;38.94;96888.88;4954185;28;20331;-76
2022/08/30 10:43:08;;;;;;;18.08;3.88;;;;;;;28.20;36.81;96882.22;4971771;28;20050;-76
2022/08/30 10:45:39;;;;;;;9.48;3.97;;;;;;;28.54;35.52;96879.94;4973745;28;20046;-76
2022/08/30 10:48:20;;;;;;;9.57;3.75;;;;;;;29.80;33.25;96878.91;4943605;28;20047;-76
2022/08/30 10:50:53;;;;;;;16.27;4.30;;;;;;;31.76;30.18;96883.00;4972589;28;20050;-77
2022/08/30 10:53:28;;;;;;;8.98;3.72;;;;;;;32.46;28.74;96875.91;4965678;28;20042;-76
2022/08/30 10:56:02;;;;;;;9.68;4.22;;;;;;;32.89;26.34;96877.09;4954084;28;20046;-76
2022/08/30 10:58:30;;;;;;;8.95;4.07;;;;;;;34.72;25.81;96870.38;4986109;28;20093;-77
2022/08/30 11:01:01;;;;;;;20.42;4.28;;;;;;;35.16;23.85;96876.31;4972662;28;20038;-76
2022/08/30 11:04:04;;;;;;;11.20;4.00;;;;;;;36.00;23.02;96872.94;4971334;28;20034;-77
2022/08/30 11:06:41;;;;;;;15.38;3.97;;;;;;;36.53;22.20;96867.06;4973035;28;20055;-76
2022/08/30 11:09:37;;;;;;;11.48;4.10;;;;;;;37.82;21.48;96866.69;4970778;28;20054;-77
2022/08/30 11:12:24;;;;;;;13.13;4.00;;;;;;;38.44;20.32;96867.44;4973291;28;20058;-76
2022/08/30 11:14:51;;;;;;;8.15;3.40;;;;;;;39.09;20.19;96858.84;4974992;28;20520;-76
2022/08/30 11:17:31;;;;;;;7.65;4.03;;;;;;;39.10;19.57;96866.81;4973335;28;20423;-75
2022/08/30 11:20:01;;;;;;;9.88;3.67;;;;;;;39.13;19.89;96863.19;4975732;28;20046;-74
2022/08/30 11:22:36;;;;;;;9.18;3.63;;;;;;;38.74;20.37;96861.81;4973151;28;20042;-77
2022/08/30 11:25:04;;;;;;;12.63;3.80;;;;;;;40.42;19.08;96857.81;4976119;28;20455;-76
2022/08/30 11:27:52;;;;;;;7.40;3.55;;;;;;;41.02;17.78;96850.78;4977738;28;20528;-77
2022/08/30 11:30:23;;;;;;;11.93;4.10;;;;;;;36.36;21.30;96867.16;4974829;28;20030;-77
2022/08/30 11:33:02;;;;;;;17.83;3.95;;;;;;;34.23;23.84;96871.88;4974765;28;20050;-77
2022/08/30 11:35:40;;;;;;;5.27;3.10;;;;;;;36.46;21.98;96863.53;4973796;28;20046;-77
2022/08/30 11:38:16;;;;;;;11.38;4.03;;;;;;;36.00;21.87;96861.81;4973878;28;20695;-77
2022/08/30 11:41:06;;;;;;;12.68;3.92;;;;;;;34.69;24.03;96871.94;4976972;28;20104;-77
2022/08/30 11:43:34;;;;;;;11.73;4.25;;;;;;;33.83;24.96;96859.81;4974999;28;20275;-77